sensor_id;sensor_type;location;lat;lon;timestamp;P1;durP1;ratioP1;P2;durP2;ratioP2
19341;SDS011;9807;48.258;12.690;2023-01-16T00:02:07;2.53;;;1.80;;
19341;SDS011;9807;48.258;12.690;2023-01-16T00:04:33;3.20;;;2.23;;
19341;SDS011;9807;48.258;12.690;2023-01-16T00:07:03;3.37;;;2.30;;
19341;SDS011;9807;48.258;12.690;2023-01-16T00:09:29;2.67;;;2.10;;
19341;SDS011;9807;48.258;12.690;2023-01-16T00:12:01;4.13;;;2.30;;
19341;SDS011;9807;48.258;12.690;2023-01-16T00:14:28;4.50;;;2.20;;
19341;SDS011;9807;48.258;12.690;2023-01-16T00:16:56;7.53;;;2.50;;
19341;SDS011;9807;48.258;12.690;2023-01-16T00:19:29;3.20;;;2.30;;
19341;SDS011;9807;48.258;12.690;2023-01-16T00:21:58;3.50;;;2.23;;
19341;SDS011;9807;48.258;12.690;2023-01-16T00:24:41;3.67;;;2.70;;
19341;SDS011;9807;48.258;12.690;2023-01-16T00:27:09;5.50;;;3.10;;
19341;SDS011;9807;48.258;12.690;2023-01-16T00:29:35;6.17;;;3.13;;
19341;SDS011;9807;48.258;12.690;2023-01-16T00:32:01;5.77;;;2.83;;
19341;SDS011;9807;48.258;12.690;2023-01-16T00:34:27;4.27;;;2.70;;
19341;SDS011;9807;48.258;12.690;2023-01-16T00:36:55;2.60;;;1.87;;
19341;SDS011;9807;48.258;12.690;2023-01-16T00:39:24;2.97;;;2.17;;
19341;SDS011;9807;48.258;12.690;2023-01-16T00:41:53;3.53;;;1.93;;
19341;SDS011;9807;48.258;12.690;2023-01-16T00:44:19;3.17;;;2.20;;
19341;SDS011;9807;48.258;12.690;2023-01-16T00:46:51;3.80;;;2.10;;
19341;SDS011;9807;48.258;12.690;2023-01-16T00:49:19;2.77;;;1.90;;
19341;SDS011;9807;48.258;12.690;2023-01-16T00:51:53;2.70;;;1.93;;
19341;SDS011;9807;48.258;12.690;2023-01-16T00:54:21;3.43;;;2.13;;
19341;SDS011;9807;48.258;12.690;2023-01-16T00:56:49;2.00;;;1.77;;
19341;SDS011;9807;48.258;12.690;2023-01-16T00:59:15;2.70;;;2.33;;
19341;SDS011;9807;48.258;12.690;2023-01-16T01:01:41;3.23;;;2.13;;
19341;SDS011;9807;48.258;12.690;2023-01-16T01:04:12;3.20;;;2.17;;
19341;SDS011;9807;48.258;12.690;2023-01-16T01:06:41;2.60;;;1.77;;
19341;SDS011;9807;48.258;12.690;2023-01-16T01:09:22;2.53;;;1.80;;
19341;SDS011;9807;48.258;12.690;2023-01-16T01:11:48;2.43;;;1.80;;
19341;SDS011;9807;48.258;12.690;2023-01-16T01:14:17;3.17;;;1.77;;
19341;SDS011;9807;48.258;12.690;2023-01-16T01:16:43;2.73;;;1.97;;
19341;SDS011;9807;48.258;12.690;2023-01-16T01:19:09;4.70;;;1.97;;
19341;SDS011;9807;48.258;12.690;2023-01-16T01:21:34;2.47;;;1.80;;
19341;SDS011;9807;48.258;12.690;2023-01-16T01:24:03;2.57;;;2.03;;
19341;SDS011;9807;48.258;12.690;2023-01-16T01:26:29;2.73;;;1.70;;
19341;SDS011;9807;48.258;12.690;2023-01-16T01:28:55;2.27;;;1.70;;
19341;SDS011;9807;48.258;12.690;2023-01-16T01:31:21;2.23;;;1.70;;
19341;SDS011;9807;48.258;12.690;2023-01-16T01:33:49;2.03;;;1.60;;
19341;SDS011;9807;48.258;12.690;2023-01-16T01:36:15;3.00;;;1.87;;
19341;SDS011;9807;48.258;12.690;2023-01-16T01:38:47;2.00;;;1.60;;
19341;SDS011;9807;48.258;12.690;2023-01-16T01:41:15;3.20;;;1.70;;
19341;SDS011;9807;48.258;12.690;2023-01-16T01:43:49;2.03;;;1.70;;
19341;SDS011;9807;48.258;12.690;2023-01-16T01:52:01;2.60;;;1.77;;
19341;SDS011;9807;48.258;12.690;2023-01-16T01:54:42;2.67;;;1.47;;
19341;SDS011;9807;48.258;12.690;2023-01-16T01:57:19;2.27;;;1.63;;
19341;SDS011;9807;48.258;12.690;2023-01-16T02:00:05;1.93;;;1.63;;
19341;SDS011;9807;48.258;12.690;2023-01-16T02:02:45;1.50;;;1.40;;
19341;SDS011;9807;48.258;12.690;2023-01-16T02:05:23;2.73;;;1.50;;
19341;SDS011;9807;48.258;12.690;2023-01-16T02:07:53;2.17;;;1.47;;
19341;SDS011;9807;48.258;12.690;2023-01-16T02:13:02;2.97;;;1.80;;
19341;SDS011;9807;48.258;12.690;2023-01-16T02:15:28;2.67;;;1.77;;
19341;SDS011;9807;48.258;12.690;2023-01-16T02:17:57;4.90;;;1.50;;
19341;SDS011;9807;48.258;12.690;2023-01-16T02:20:53;2.13;;;1.30;;
19341;SDS011;9807;48.258;12.690;2023-01-16T02:23:51;2.30;;;1.50;;
19341;SDS011;9807;48.258;12.690;2023-01-16T02:26:33;1.70;;;1.37;;
19341;SDS011;9807;48.258;12.690;2023-01-16T02:29:30;2.47;;;1.30;;
19341;SDS011;9807;48.258;12.690;2023-01-16T02:32:21;1.73;;;1.40;;
19341;SDS011;9807;48.258;12.690;2023-01-16T02:35:16;2.03;;;1.60;;
19341;SDS011;9807;48.258;12.690;2023-01-16T02:38:20;1.93;;;1.60;;
19341;SDS011;9807;48.258;12.690;2023-01-16T02:41:02;2.23;;;1.57;;
19341;SDS011;9807;48.258;12.690;2023-01-16T02:47:04;2.03;;;1.50;;
19341;SDS011;9807;48.258;12.690;2023-01-16T02:49:40;1.90;;;1.20;;
19341;SDS011;9807;48.258;12.690;2023-01-16T02:52:14;1.63;;;1.40;;
19341;SDS011;9807;48.258;12.690;2023-01-16T02:54:56;2.17;;;1.30;;
19341;SDS011;9807;48.258;12.690;2023-01-16T02:57:30;1.20;;;1.10;;
19341;SDS011;9807;48.258;12.690;2023-01-16T03:00:02;2.00;;;1.43;;
19341;SDS011;9807;48.258;12.690;2023-01-16T03:02:34;2.40;;;1.20;;
19341;SDS011;9807;48.258;12.690;2023-01-16T03:05:00;1.50;;;1.40;;
19341;SDS011;9807;48.258;12.690;2023-01-16T03:15:24;1.27;;;1.17;;
19341;SDS011;9807;48.258;12.690;2023-01-16T03:18:00;2.60;;;1.30;;
19341;SDS011;9807;48.258;12.690;2023-01-16T03:38:02;1.93;;;1.40;;
19341;SDS011;9807;48.258;12.690;2023-01-16T03:40:32;1.27;;;1.17;;
19341;SDS011;9807;48.258;12.690;2023-01-16T03:48:13;1.37;;;1.17;;
19341;SDS011;9807;48.258;12.690;2023-01-16T03:50:56;1.30;;;1.20;;
19341;SDS011;9807;48.258;12.690;2023-01-16T03:53:31;1.40;;;1.30;;
19341;SDS011;9807;48.258;12.690;2023-01-16T03:56:20;1.57;;;1.20;;
19341;SDS011;9807;48.258;12.690;2023-01-16T03:58:51;1.87;;;1.10;;
19341;SDS011;9807;48.258;12.690;2023-01-16T04:04:07;1.57;;;1.17;;
19341;SDS011;9807;48.258;12.690;2023-01-16T04:06:47;1.97;;;1.20;;
19341;SDS011;9807;48.258;12.690;2023-01-16T04:12:26;1.47;;;1.10;;
19341;SDS011;9807;48.258;12.690;2023-01-16T04:14:59;2.30;;;1.50;;
19341;SDS011;9807;48.258;12.690;2023-01-16T04:17:28;2.03;;;1.10;;
19341;SDS011;9807;48.258;12.690;2023-01-16T04:19:55;2.70;;;1.50;;
19341;SDS011;9807;48.258;12.690;2023-01-16T04:22:22;1.97;;;1.30;;
19341;SDS011;9807;48.258;12.690;2023-01-16T04:24:53;1.67;;;1.17;;
19341;SDS011;9807;48.258;12.690;2023-01-16T04:27:21;1.97;;;1.20;;
19341;SDS011;9807;48.258;12.690;2023-01-16T04:29:55;2.33;;;1.00;;
19341;SDS011;9807;48.258;12.690;2023-01-16T04:32:23;2.40;;;1.50;;
19341;SDS011;9807;48.258;12.690;2023-01-16T04:34:55;1.33;;;1.20;;
19341;SDS011;9807;48.258;12.690;2023-01-16T04:37:30;1.50;;;1.30;;
19341;SDS011;9807;48.258;12.690;2023-01-16T04:39:56;1.73;;;1.20;;
19341;SDS011;9807;48.258;12.690;2023-01-16T04:42:23;1.43;;;1.20;;
19341;SDS011;9807;48.258;12.690;2023-01-16T04:44:49;2.70;;;1.27;;
19341;SDS011;9807;48.258;12.690;2023-01-16T04:47:17;1.27;;;1.10;;
19341;SDS011;9807;48.258;12.690;2023-01-16T04:49:43;1.50;;;1.40;;
19341;SDS011;9807;48.258;12.690;2023-01-16T04:52:12;1.40;;;1.00;;
19341;SDS011;9807;48.258;12.690;2023-01-16T04:54:41;2.03;;;1.10;;
19341;SDS011;9807;48.258;12.690;2023-01-16T04:57:10;1.70;;;1.40;;
19341;SDS011;9807;48.258;12.690;2023-01-16T04:59:45;1.70;;;1.30;;
19341;SDS011;9807;48.258;12.690;2023-01-16T05:02:12;1.97;;;1.53;;
19341;SDS011;9807;48.258;12.690;2023-01-16T05:04:41;2.10;;;1.30;;
19341;SDS011;9807;48.258;12.690;2023-01-16T05:07:09;1.87;;;1.67;;
19341;SDS011;9807;48.258;12.690;2023-01-16T05:09:34;2.13;;;1.40;;
19341;SDS011;9807;48.258;12.690;2023-01-16T05:12:00;2.47;;;1.40;;
19341;SDS011;9807;48.258;12.690;2023-01-16T05:14:29;3.17;;;1.40;;
19341;SDS011;9807;48.258;12.690;2023-01-16T05:16:57;2.67;;;1.50;;
19341;SDS011;9807;48.258;12.690;2023-01-16T05:19:23;1.67;;;1.33;;
19341;SDS011;9807;48.258;12.690;2023-01-16T05:21:55;2.20;;;1.57;;
19341;SDS011;9807;48.258;12.690;2023-01-16T05:24:34;1.57;;;1.47;;
19341;SDS011;9807;48.258;12.690;2023-01-16T05:27:00;3.10;;;1.67;;
19341;SDS011;9807;48.258;12.690;2023-01-16T05:29:31;5.37;;;1.53;;
19341;SDS011;9807;48.258;12.690;2023-01-16T05:32:02;3.07;;;1.50;;
19341;SDS011;9807;48.258;12.690;2023-01-16T05:34:28;2.40;;;1.53;;
19341;SDS011;9807;48.258;12.690;2023-01-16T05:36:54;2.63;;;1.47;;
19341;SDS011;9807;48.258;12.690;2023-01-16T05:39:25;2.17;;;1.57;;
19341;SDS011;9807;48.258;12.690;2023-01-16T05:41:51;2.90;;;1.43;;
19341;SDS011;9807;48.258;12.690;2023-01-16T05:44:17;3.57;;;1.43;;
19341;SDS011;9807;48.258;12.690;2023-01-16T05:46:44;3.20;;;1.63;;
19341;SDS011;9807;48.258;12.690;2023-01-16T05:49:26;2.10;;;1.53;;
19341;SDS011;9807;48.258;12.690;2023-01-16T05:52:01;2.43;;;1.97;;
19341;SDS011;9807;48.258;12.690;2023-01-16T05:54:33;5.03;;;2.30;;
19341;SDS011;9807;48.258;12.690;2023-01-16T05:56:59;5.47;;;2.40;;
19341;SDS011;9807;48.258;12.690;2023-01-16T05:59:30;2.53;;;2.03;;
19341;SDS011;9807;48.258;12.690;2023-01-16T06:01:59;2.73;;;1.70;;
19341;SDS011;9807;48.258;12.690;2023-01-16T06:04:28;2.20;;;1.57;;
19341;SDS011;9807;48.258;12.690;2023-01-16T06:06:55;3.80;;;2.10;;
19341;SDS011;9807;48.258;12.690;2023-01-16T06:09:24;3.20;;;2.17;;
19341;SDS011;9807;48.258;12.690;2023-01-16T06:12:14;2.90;;;1.80;;
19341;SDS011;9807;48.258;12.690;2023-01-16T06:14:46;3.83;;;2.07;;
19341;SDS011;9807;48.258;12.690;2023-01-16T06:17:14;2.10;;;1.80;;
19341;SDS011;9807;48.258;12.690;2023-01-16T06:19:43;2.50;;;1.80;;
19341;SDS011;9807;48.258;12.690;2023-01-16T06:22:10;1.90;;;1.70;;
19341;SDS011;9807;48.258;12.690;2023-01-16T06:27:34;2.27;;;2.07;;
19341;SDS011;9807;48.258;12.690;2023-01-16T06:30:02;3.03;;;2.00;;
19341;SDS011;9807;48.258;12.690;2023-01-16T06:32:29;2.67;;;2.00;;
19341;SDS011;9807;48.258;12.690;2023-01-16T06:35:10;3.07;;;2.07;;
19341;SDS011;9807;48.258;12.690;2023-01-16T06:37:36;3.87;;;1.83;;
19341;SDS011;9807;48.258;12.690;2023-01-16T06:40:10;2.90;;;1.93;;
19341;SDS011;9807;48.258;12.690;2023-01-16T06:42:41;3.23;;;1.87;;
19341;SDS011;9807;48.258;12.690;2023-01-16T06:45:17;4.20;;;1.87;;
19341;SDS011;9807;48.258;12.690;2023-01-16T06:47:50;3.87;;;2.30;;
19341;SDS011;9807;48.258;12.690;2023-01-16T06:50:17;3.53;;;2.20;;
19341;SDS011;9807;48.258;12.690;2023-01-16T06:52:58;3.10;;;2.30;;
19341;SDS011;9807;48.258;12.690;2023-01-16T06:55:24;4.73;;;2.40;;
19341;SDS011;9807;48.258;12.690;2023-01-16T06:57:50;5.50;;;2.60;;
19341;SDS011;9807;48.258;12.690;2023-01-16T07:00:19;3.77;;;2.50;;
19341;SDS011;9807;48.258;12.690;2023-01-16T07:02:54;2.50;;;2.03;;
19341;SDS011;9807;48.258;12.690;2023-01-16T07:05:22;3.40;;;2.13;;
19341;SDS011;9807;48.258;12.690;2023-01-16T07:07:55;3.20;;;2.40;;
19341;SDS011;9807;48.258;12.690;2023-01-16T07:10:21;5.17;;;2.37;;
19341;SDS011;9807;48.258;12.690;2023-01-16T07:12:47;4.40;;;3.00;;
19341;SDS011;9807;48.258;12.690;2023-01-16T07:15:20;4.30;;;2.50;;
19341;SDS011;9807;48.258;12.690;2023-01-16T07:18:05;4.77;;;2.80;;
19341;SDS011;9807;48.258;12.690;2023-01-16T07:20:53;4.93;;;2.40;;
19341;SDS011;9807;48.258;12.690;2023-01-16T07:23:44;4.47;;;2.60;;
19341;SDS011;9807;48.258;12.690;2023-01-16T07:26:20;3.73;;;2.40;;
19341;SDS011;9807;48.258;12.690;2023-01-16T07:28:49;3.10;;;2.30;;
19341;SDS011;9807;48.258;12.690;2023-01-16T07:34:30;4.40;;;2.20;;
19341;SDS011;9807;48.258;12.690;2023-01-16T07:36:56;4.70;;;2.53;;
19341;SDS011;9807;48.258;12.690;2023-01-16T07:39:32;3.07;;;2.33;;
19341;SDS011;9807;48.258;12.690;2023-01-16T07:42:04;2.60;;;2.10;;
19341;SDS011;9807;48.258;12.690;2023-01-16T07:47:25;2.80;;;2.20;;
19341;SDS011;9807;48.258;12.690;2023-01-16T07:49:59;3.10;;;2.43;;
19341;SDS011;9807;48.258;12.690;2023-01-16T07:52:29;3.73;;;2.30;;
19341;SDS011;9807;48.258;12.690;2023-01-16T07:54:54;3.10;;;2.33;;
19341;SDS011;9807;48.258;12.690;2023-01-16T07:57:48;3.73;;;2.47;;
19341;SDS011;9807;48.258;12.690;2023-01-16T08:00:17;4.00;;;2.30;;
19341;SDS011;9807;48.258;12.690;2023-01-16T08:02:49;3.23;;;2.10;;
19341;SDS011;9807;48.258;12.690;2023-01-16T08:05:15;3.97;;;2.30;;
19341;SDS011;9807;48.258;12.690;2023-01-16T08:07:49;4.00;;;2.60;;
19341;SDS011;9807;48.258;12.690;2023-01-16T08:10:33;3.63;;;2.23;;
19341;SDS011;9807;48.258;12.690;2023-01-16T08:13:14;3.70;;;2.30;;
19341;SDS011;9807;48.258;12.690;2023-01-16T08:15:47;5.27;;;2.67;;
19341;SDS011;9807;48.258;12.690;2023-01-16T08:18:15;3.37;;;2.37;;
19341;SDS011;9807;48.258;12.690;2023-01-16T08:20:44;3.60;;;2.23;;
19341;SDS011;9807;48.258;12.690;2023-01-16T08:23:23;4.33;;;2.33;;
19341;SDS011;9807;48.258;12.690;2023-01-16T08:25:57;3.63;;;2.50;;
19341;SDS011;9807;48.258;12.690;2023-01-16T08:28:25;4.00;;;2.20;;
19341;SDS011;9807;48.258;12.690;2023-01-16T08:30:53;5.87;;;2.47;;
19341;SDS011;9807;48.258;12.690;2023-01-16T08:33:19;4.10;;;2.23;;
19341;SDS011;9807;48.258;12.690;2023-01-16T08:35:47;4.87;;;2.33;;
19341;SDS011;9807;48.258;12.690;2023-01-16T08:41:24;3.53;;;2.00;;
19341;SDS011;9807;48.258;12.690;2023-01-16T08:44:15;3.37;;;2.00;;
19341;SDS011;9807;48.258;12.690;2023-01-16T08:47:03;3.03;;;2.20;;
19341;SDS011;9807;48.258;12.690;2023-01-16T08:49:59;3.87;;;2.03;;
19341;SDS011;9807;48.258;12.690;2023-01-16T08:53:01;3.20;;;1.93;;
19341;SDS011;9807;48.258;12.690;2023-01-16T08:55:30;3.20;;;1.67;;
19341;SDS011;9807;48.258;12.690;2023-01-16T08:57:57;2.63;;;1.70;;
19341;SDS011;9807;48.258;12.690;2023-01-16T09:00:24;2.20;;;1.70;;
19341;SDS011;9807;48.258;12.690;2023-01-16T09:03:06;3.93;;;1.90;;
19341;SDS011;9807;48.258;12.690;2023-01-16T09:05:58;2.77;;;2.07;;
19341;SDS011;9807;48.258;12.690;2023-01-16T09:08:53;2.37;;;1.70;;
19341;SDS011;9807;48.258;12.690;2023-01-16T09:11:18;2.17;;;1.47;;
19341;SDS011;9807;48.258;12.690;2023-01-16T09:14:03;3.20;;;1.67;;
19341;SDS011;9807;48.258;12.690;2023-01-16T09:16:28;3.03;;;1.60;;
19341;SDS011;9807;48.258;12.690;2023-01-16T09:18:54;2.47;;;1.43;;
19341;SDS011;9807;48.258;12.690;2023-01-16T09:21:20;2.70;;;1.70;;
19341;SDS011;9807;48.258;12.690;2023-01-16T09:24:05;3.23;;;1.60;;
19341;SDS011;9807;48.258;12.690;2023-01-16T09:26:36;3.50;;;1.93;;
19341;SDS011;9807;48.258;12.690;2023-01-16T09:29:17;3.00;;;1.70;;
19341;SDS011;9807;48.258;12.690;2023-01-16T09:31:54;2.33;;;1.60;;
19341;SDS011;9807;48.258;12.690;2023-01-16T09:34:20;4.03;;;1.53;;
19341;SDS011;9807;48.258;12.690;2023-01-16T09:36:46;3.27;;;1.70;;
19341;SDS011;9807;48.258;12.690;2023-01-16T09:39:19;3.50;;;1.60;;
19341;SDS011;9807;48.258;12.690;2023-01-16T09:44:52;5.63;;;1.70;;
19341;SDS011;9807;48.258;12.690;2023-01-16T09:47:30;3.27;;;1.73;;
19341;SDS011;9807;48.258;12.690;2023-01-16T09:50:17;3.47;;;2.00;;
19341;SDS011;9807;48.258;12.690;2023-01-16T09:56:37;3.30;;;1.70;;
19341;SDS011;9807;48.258;12.690;2023-01-16T09:59:30;3.67;;;1.90;;
19341;SDS011;9807;48.258;12.690;2023-01-16T10:05:09;4.17;;;1.40;;
19341;SDS011;9807;48.258;12.690;2023-01-16T10:10:48;2.20;;;1.57;;
19341;SDS011;9807;48.258;12.690;2023-01-16T10:22:28;3.13;;;1.60;;
19341;SDS011;9807;48.258;12.690;2023-01-16T10:25:21;2.30;;;1.77;;
19341;SDS011;9807;48.258;12.690;2023-01-16T10:31:14;1.50;;;1.37;;
19341;SDS011;9807;48.258;12.690;2023-01-16T10:33:53;3.57;;;1.57;;
19341;SDS011;9807;48.258;12.690;2023-01-16T10:39:35;2.87;;;1.63;;
19341;SDS011;9807;48.258;12.690;2023-01-16T10:48:14;2.37;;;1.47;;
19341;SDS011;9807;48.258;12.690;2023-01-16T10:51:19;1.97;;;1.70;;
19341;SDS011;9807;48.258;12.690;2023-01-16T10:54:25;2.20;;;1.60;;
19341;SDS011;9807;48.258;12.690;2023-01-16T10:57:14;1.63;;;1.50;;
19341;SDS011;9807;48.258;12.690;2023-01-16T10:59:41;6.73;;;2.53;;
19341;SDS011;9807;48.258;12.690;2023-01-16T11:02:16;2.43;;;1.90;;
19341;SDS011;9807;48.258;12.690;2023-01-16T11:05:10;3.87;;;1.83;;
19341;SDS011;9807;48.258;12.690;2023-01-16T11:11:01;3.07;;;2.20;;
19341;SDS011;9807;48.258;12.690;2023-01-16T11:13:28;2.80;;;1.80;;
19341;SDS011;9807;48.258;12.690;2023-01-16T11:16:19;2.30;;;1.90;;
19341;SDS011;9807;48.258;12.690;2023-01-16T11:19:24;2.67;;;2.00;;
19341;SDS011;9807;48.258;12.690;2023-01-16T11:22:01;2.90;;;2.00;;
19341;SDS011;9807;48.258;12.690;2023-01-16T11:24:51;3.03;;;2.10;;
19341;SDS011;9807;48.258;12.690;2023-01-16T11:27:33;3.30;;;1.97;;
19341;SDS011;9807;48.258;12.690;2023-01-16T11:30:14;5.27;;;2.40;;
19341;SDS011;9807;48.258;12.690;2023-01-16T11:32:56;5.83;;;2.50;;
19341;SDS011;9807;48.258;12.690;2023-01-16T11:35:35;3.90;;;2.30;;
19341;SDS011;9807;48.258;12.690;2023-01-16T11:38:14;4.27;;;2.10;;
19341;SDS011;9807;48.258;12.690;2023-01-16T11:40:54;2.87;;;2.13;;
19341;SDS011;9807;48.258;12.690;2023-01-16T11:43:28;3.07;;;2.30;;
19341;SDS011;9807;48.258;12.690;2023-01-16T11:49:17;2.50;;;2.20;;
19341;SDS011;9807;48.258;12.690;2023-01-16T11:51:58;3.37;;;2.00;;
19341;SDS011;9807;48.258;12.690;2023-01-16T11:54:55;2.40;;;1.90;;
19341;SDS011;9807;48.258;12.690;2023-01-16T12:05:22;2.43;;;2.00;;
19341;SDS011;9807;48.258;12.690;2023-01-16T12:20:10;5.67;;;2.20;;
19341;SDS011;9807;48.258;12.690;2023-01-16T12:26:24;2.17;;;1.80;;
19341;SDS011;9807;48.258;12.690;2023-01-16T12:29:20;4.37;;;2.00;;
19341;SDS011;9807;48.258;12.690;2023-01-16T12:35:04;11.90;;;2.30;;
19341;SDS011;9807;48.258;12.690;2023-01-16T12:47:13;3.63;;;1.97;;
19341;SDS011;9807;48.258;12.690;2023-01-16T12:50:11;2.80;;;1.60;;
19341;SDS011;9807;48.258;12.690;2023-01-16T12:55:53;1.67;;;1.50;;
19341;SDS011;9807;48.258;12.690;2023-01-16T12:58:53;3.17;;;1.50;;
19341;SDS011;9807;48.258;12.690;2023-01-16T13:01:27;2.50;;;1.83;;
19341;SDS011;9807;48.258;12.690;2023-01-16T13:06:59;2.40;;;1.47;;
19341;SDS011;9807;48.258;12.690;2023-01-16T13:12:25;4.10;;;1.40;;
19341;SDS011;9807;48.258;12.690;2023-01-16T13:15:33;1.47;;;1.30;;
19341;SDS011;9807;48.258;12.690;2023-01-16T13:18:18;2.77;;;1.20;;
19341;SDS011;9807;48.258;12.690;2023-01-16T13:20:52;2.10;;;1.10;;
19341;SDS011;9807;48.258;12.690;2023-01-16T13:26:29;1.73;;;1.13;;
19341;SDS011;9807;48.258;12.690;2023-01-16T13:31:45;1.87;;;1.10;;
19341;SDS011;9807;48.258;12.690;2023-01-16T13:34:29;0.90;;;0.90;;
19341;SDS011;9807;48.258;12.690;2023-01-16T13:42:48;1.87;;;0.90;;
19341;SDS011;9807;48.258;12.690;2023-01-16T13:45:24;1.23;;;0.80;;
19341;SDS011;9807;48.258;12.690;2023-01-16T13:48:17;1.63;;;1.47;;
19341;SDS011;9807;48.258;12.690;2023-01-16T13:51:08;1.17;;;0.90;;
19341;SDS011;9807;48.258;12.690;2023-01-16T13:53:45;1.13;;;0.90;;
19341;SDS011;9807;48.258;12.690;2023-01-16T13:56:15;1.70;;;1.00;;
19341;SDS011;9807;48.258;12.690;2023-01-16T13:58:46;2.40;;;1.00;;
19341;SDS011;9807;48.258;12.690;2023-01-16T14:06:53;1.10;;;1.00;;
19341;SDS011;9807;48.258;12.690;2023-01-16T14:12:31;1.53;;;1.00;;
19341;SDS011;9807;48.258;12.690;2023-01-16T14:15:15;1.40;;;0.90;;
19341;SDS011;9807;48.258;12.690;2023-01-16T14:18:17;1.27;;;0.93;;
19341;SDS011;9807;48.258;12.690;2023-01-16T14:23:23;1.10;;;1.00;;
19341;SDS011;9807;48.258;12.690;2023-01-16T14:29:23;1.00;;;0.87;;
19341;SDS011;9807;48.258;12.690;2023-01-16T14:39:54;2.13;;;1.10;;
19341;SDS011;9807;48.258;12.690;2023-01-16T14:42:49;2.03;;;1.10;;
19341;SDS011;9807;48.258;12.690;2023-01-16T14:45:41;2.07;;;1.10;;
19341;SDS011;9807;48.258;12.690;2023-01-16T14:48:45;1.47;;;1.10;;
19341;SDS011;9807;48.258;12.690;2023-01-16T14:51:31;0.90;;;0.90;;
19341;SDS011;9807;48.258;12.690;2023-01-16T14:54:21;1.07;;;0.97;;
19341;SDS011;9807;48.258;12.690;2023-01-16T14:57:19;1.37;;;0.90;;
19341;SDS011;9807;48.258;12.690;2023-01-16T14:59:53;1.00;;;0.90;;
19341;SDS011;9807;48.258;12.690;2023-01-16T15:02:33;0.77;;;0.70;;
19341;SDS011;9807;48.258;12.690;2023-01-16T15:05:28;1.83;;;0.90;;
19341;SDS011;9807;48.258;12.690;2023-01-16T15:08:17;2.73;;;0.90;;
19341;SDS011;9807;48.258;12.690;2023-01-16T15:10:56;1.83;;;0.80;;
19341;SDS011;9807;48.258;12.690;2023-01-16T15:13:44;0.77;;;0.60;;
19341;SDS011;9807;48.258;12.690;2023-01-16T15:16:29;2.20;;;1.00;;
19341;SDS011;9807;48.258;12.690;2023-01-16T15:19:17;1.93;;;1.10;;
19341;SDS011;9807;48.258;12.690;2023-01-16T15:22:04;1.97;;;1.20;;
19341;SDS011;9807;48.258;12.690;2023-01-16T15:24:40;1.33;;;1.10;;
19341;SDS011;9807;48.258;12.690;2023-01-16T15:27:18;2.00;;;1.00;;
19341;SDS011;9807;48.258;12.690;2023-01-16T15:30:00;3.30;;;1.80;;
19341;SDS011;9807;48.258;12.690;2023-01-16T15:32:30;17.17;;;2.73;;
19341;SDS011;9807;48.258;12.690;2023-01-16T15:35:16;8.37;;;3.20;;
19341;SDS011;9807;48.258;12.690;2023-01-16T15:37:53;4.80;;;3.03;;
19341;SDS011;9807;48.258;12.690;2023-01-16T15:40:29;2.47;;;1.50;;
19341;SDS011;9807;48.258;12.690;2023-01-16T15:42:58;1.70;;;1.47;;
19341;SDS011;9807;48.258;12.690;2023-01-16T15:49:16;5.27;;;2.03;;
19341;SDS011;9807;48.258;12.690;2023-01-16T15:51:58;2.23;;;1.30;;
19341;SDS011;9807;48.258;12.690;2023-01-16T15:54:24;0.97;;;0.90;;
19341;SDS011;9807;48.258;12.690;2023-01-16T15:56:53;9.27;;;2.00;;
19341;SDS011;9807;48.258;12.690;2023-01-16T15:59:27;6.90;;;2.80;;
19341;SDS011;9807;48.258;12.690;2023-01-16T16:02:16;10.30;;;3.57;;
19341;SDS011;9807;48.258;12.690;2023-01-16T16:04:44;19.83;;;4.17;;
19341;SDS011;9807;48.258;12.690;2023-01-16T16:07:13;17.20;;;5.33;;
19341;SDS011;9807;48.258;12.690;2023-01-16T16:09:46;48.60;;;10.10;;
19341;SDS011;9807;48.258;12.690;2023-01-16T16:12:14;21.57;;;6.50;;
19341;SDS011;9807;48.258;12.690;2023-01-16T16:14:43;7.30;;;3.00;;
19341;SDS011;9807;48.258;12.690;2023-01-16T16:17:58;9.03;;;3.27;;
19341;SDS011;9807;48.258;12.690;2023-01-16T16:20:34;4.27;;;1.90;;
19341;SDS011;9807;48.258;12.690;2023-01-16T16:23:20;3.87;;;1.80;;
19341;SDS011;9807;48.258;12.690;2023-01-16T16:25:49;5.10;;;2.20;;
19341;SDS011;9807;48.258;12.690;2023-01-16T16:28:22;11.17;;;4.93;;
19341;SDS011;9807;48.258;12.690;2023-01-16T16:33:34;4.60;;;2.57;;
19341;SDS011;9807;48.258;12.690;2023-01-16T16:36:03;5.90;;;2.90;;
19341;SDS011;9807;48.258;12.690;2023-01-16T16:51:39;7.03;;;3.00;;
19341;SDS011;9807;48.258;12.690;2023-01-16T16:54:08;3.43;;;1.97;;
19341;SDS011;9807;48.258;12.690;2023-01-16T16:56:39;3.80;;;1.90;;
19341;SDS011;9807;48.258;12.690;2023-01-16T16:59:16;4.57;;;2.03;;
19341;SDS011;9807;48.258;12.690;2023-01-16T17:01:49;2.87;;;2.03;;
19341;SDS011;9807;48.258;12.690;2023-01-16T17:04:23;8.23;;;2.93;;
19341;SDS011;9807;48.258;12.690;2023-01-16T17:06:50;3.27;;;2.23;;
19341;SDS011;9807;48.258;12.690;2023-01-16T17:09:17;4.13;;;2.23;;
19341;SDS011;9807;48.258;12.690;2023-01-16T17:11:45;4.17;;;2.00;;
19341;SDS011;9807;48.258;12.690;2023-01-16T17:14:12;2.80;;;1.87;;
19341;SDS011;9807;48.258;12.690;2023-01-16T17:16:38;3.10;;;1.93;;
19341;SDS011;9807;48.258;12.690;2023-01-16T17:21:42;2.70;;;2.07;;
19341;SDS011;9807;48.258;12.690;2023-01-16T17:24:15;5.60;;;2.13;;
19341;SDS011;9807;48.258;12.690;2023-01-16T17:26:43;3.33;;;2.17;;
19341;SDS011;9807;48.258;12.690;2023-01-16T17:29:09;2.37;;;1.83;;
19341;SDS011;9807;48.258;12.690;2023-01-16T17:31:35;2.77;;;1.90;;
19341;SDS011;9807;48.258;12.690;2023-01-16T17:34:08;2.80;;;2.00;;
19341;SDS011;9807;48.258;12.690;2023-01-16T17:36:41;2.90;;;1.97;;
19341;SDS011;9807;48.258;12.690;2023-01-16T17:39:07;2.80;;;1.80;;
19341;SDS011;9807;48.258;12.690;2023-01-16T17:41:37;4.17;;;2.60;;
19341;SDS011;9807;48.258;12.690;2023-01-16T17:44:25;4.40;;;2.50;;
19341;SDS011;9807;48.258;12.690;2023-01-16T17:47:10;2.70;;;2.00;;
19341;SDS011;9807;48.258;12.690;2023-01-16T17:49:37;7.77;;;3.43;;
19341;SDS011;9807;48.258;12.690;2023-01-16T17:52:42;5.73;;;3.20;;
19341;SDS011;9807;48.258;12.690;2023-01-16T17:55:17;10.20;;;4.83;;
19341;SDS011;9807;48.258;12.690;2023-01-16T17:58:02;13.53;;;5.97;;
19341;SDS011;9807;48.258;12.690;2023-01-16T18:00:28;8.23;;;5.00;;
19341;SDS011;9807;48.258;12.690;2023-01-16T18:02:57;20.93;;;9.03;;
19341;SDS011;9807;48.258;12.690;2023-01-16T18:05:26;19.73;;;10.50;;
19341;SDS011;9807;48.258;12.690;2023-01-16T18:07:55;19.03;;;10.20;;
19341;SDS011;9807;48.258;12.690;2023-01-16T18:10:21;27.57;;;14.90;;
19341;SDS011;9807;48.258;12.690;2023-01-16T18:12:47;32.83;;;17.23;;
19341;SDS011;9807;48.258;12.690;2023-01-16T18:15:31;13.87;;;8.07;;
19341;SDS011;9807;48.258;12.690;2023-01-16T18:18:16;7.83;;;4.27;;
19341;SDS011;9807;48.258;12.690;2023-01-16T18:20:41;17.53;;;7.77;;
19341;SDS011;9807;48.258;12.690;2023-01-16T18:23:07;18.83;;;8.73;;
19341;SDS011;9807;48.258;12.690;2023-01-16T18:25:53;26.43;;;12.03;;
19341;SDS011;9807;48.258;12.690;2023-01-16T18:28:18;19.63;;;11.63;;
19341;SDS011;9807;48.258;12.690;2023-01-16T18:30:47;25.10;;;12.97;;
19341;SDS011;9807;48.258;12.690;2023-01-16T18:33:13;29.10;;;13.47;;
19341;SDS011;9807;48.258;12.690;2023-01-16T18:35:39;24.80;;;12.57;;
19341;SDS011;9807;48.258;12.690;2023-01-16T18:38:08;24.10;;;13.17;;
19341;SDS011;9807;48.258;12.690;2023-01-16T18:40:55;18.60;;;10.00;;
19341;SDS011;9807;48.258;12.690;2023-01-16T18:43:39;18.00;;;9.80;;
19341;SDS011;9807;48.258;12.690;2023-01-16T18:46:24;25.33;;;12.60;;
19341;SDS011;9807;48.258;12.690;2023-01-16T18:49:11;65.47;;;18.63;;
19341;SDS011;9807;48.258;12.690;2023-01-16T18:51:56;29.50;;;11.57;;
19341;SDS011;9807;48.258;12.690;2023-01-16T18:54:43;42.67;;;13.70;;
19341;SDS011;9807;48.258;12.690;2023-01-16T18:57:31;28.30;;;10.07;;